createdAt,value
2022-12-08T00:00:33.614Z,6.03
2022-12-08T00:03:06.772Z,5.90
2022-12-08T00:05:57.960Z,6.27
2022-12-08T00:08:44.365Z,6.20
2022-12-08T00:11:13.360Z,6.13
2022-12-08T00:13:42.455Z,5.80
2022-12-08T00:16:11.603Z,6.00
2022-12-08T00:18:41.450Z,5.60
2022-12-08T00:21:09.818Z,6.10
2022-12-08T00:23:38.472Z,6.20
2022-12-08T00:26:08.297Z,6.17
2022-12-08T00:28:37.190Z,6.60
2022-12-08T00:31:10.180Z,5.87
2022-12-08T00:33:38.829Z,6.50
2022-12-08T00:36:11.770Z,5.70
2022-12-08T00:38:41.724Z,6.30
2022-12-08T00:41:14.090Z,6.40
2022-12-08T00:43:42.848Z,6.20
2022-12-08T00:46:13.188Z,6.60
2022-12-08T00:48:44.196Z,6.57
2022-12-08T00:51:14.345Z,6.07
2022-12-08T00:53:42.870Z,6.60
2022-12-08T00:56:11.357Z,6.17
2022-12-08T00:58:41.073Z,7.03
2022-12-08T01:01:11.676Z,6.87
2022-12-08T01:03:45.475Z,7.20
2022-12-08T01:06:23.822Z,6.80
2022-12-08T01:08:52.479Z,7.00
2022-12-08T01:11:23.246Z,6.83
2022-12-08T01:13:53.127Z,6.67
2022-12-08T01:16:23.065Z,6.83
2022-12-08T01:19:05.884Z,7.27
2022-12-08T01:21:36.421Z,6.40
2022-12-08T01:24:06.844Z,7.03
2022-12-08T01:26:36.301Z,7.00
2022-12-08T01:29:05.347Z,6.40
2022-12-08T01:31:35.910Z,7.20
2022-12-08T01:34:07.062Z,6.90
2022-12-08T01:36:42.261Z,7.27
2022-12-08T01:39:16.029Z,7.23
2022-12-08T01:41:45.711Z,7.30
2022-12-08T01:44:52.418Z,7.07
2022-12-08T01:47:23.890Z,6.80
2022-12-08T01:49:58.873Z,6.67
2022-12-08T01:52:34.685Z,7.70
2022-12-08T01:55:07.614Z,7.07
2022-12-08T01:57:42.194Z,7.57
2022-12-08T02:00:15.266Z,7.20
2022-12-08T02:02:54.724Z,7.77
2022-12-08T02:05:27.859Z,7.63
2022-12-08T02:07:59.817Z,7.87
2022-12-08T02:10:36.721Z,7.50
2022-12-08T02:13:07.519Z,7.10
2022-12-08T02:15:54.107Z,7.67
2022-12-08T02:18:39.891Z,6.53
2022-12-08T02:21:32.084Z,7.10
2022-12-08T02:24:30.285Z,7.53
2022-12-08T02:27:33.630Z,6.80
2022-12-08T02:30:26.634Z,7.17
2022-12-08T02:33:55.274Z,7.07
2022-12-08T02:36:45.257Z,7.53
2022-12-08T02:39:42.580Z,7.47
2022-12-08T02:42:39.021Z,7.23
2022-12-08T02:45:32.978Z,6.30
2022-12-08T02:48:20.958Z,7.07
2022-12-08T02:50:53.485Z,7.43
2022-12-08T02:53:23.148Z,7.13
2022-12-08T02:56:02.548Z,7.67
2022-12-08T02:58:43.245Z,7.53
2022-12-08T03:01:37.595Z,7.50
2022-12-08T03:04:15.761Z,8.07
2022-12-08T03:06:52.352Z,7.53
2022-12-08T03:09:25.799Z,7.60
2022-12-08T03:12:00.488Z,7.50
2022-12-08T03:14:31.851Z,8.00
2022-12-08T03:17:01.881Z,7.73
2022-12-08T03:19:36.214Z,8.17
2022-12-08T03:22:08.143Z,7.70
2022-12-08T03:24:38.897Z,7.50
2022-12-08T03:27:09.918Z,7.60
2022-12-08T03:29:38.181Z,8.23
2022-12-08T03:32:12.713Z,6.53
2022-12-08T03:34:44.047Z,8.30
2022-12-08T03:37:15.290Z,8.53
2022-12-08T03:39:44.121Z,8.10
2022-12-08T03:42:12.776Z,8.13
2022-12-08T03:44:41.355Z,9.07
2022-12-08T03:47:12.080Z,7.73
2022-12-08T03:49:40.793Z,8.37
2022-12-08T03:52:09.210Z,7.53
2022-12-08T03:54:38.882Z,7.90
2022-12-08T03:57:07.358Z,8.13
2022-12-08T03:59:35.727Z,8.13
2022-12-08T04:02:07.068Z,8.00
2022-12-08T04:04:35.731Z,8.40
2022-12-08T04:07:04.446Z,8.03
2022-12-08T04:09:32.949Z,7.50
2022-12-08T04:12:02.660Z,7.70
2022-12-08T04:14:31.125Z,8.07
2022-12-08T04:16:59.567Z,7.87
2022-12-08T04:19:28.087Z,7.33
2022-12-08T04:21:56.932Z,7.77
2022-12-08T04:24:25.232Z,6.63
2022-12-08T04:26:53.718Z,6.60
2022-12-08T04:29:23.358Z,6.93
2022-12-08T04:31:52.155Z,6.37
2022-12-08T04:34:20.527Z,7.73
2022-12-08T04:36:48.831Z,6.53
2022-12-08T04:39:17.241Z,6.97
2022-12-08T04:41:45.590Z,7.23
2022-12-08T04:44:13.906Z,7.50
2022-12-08T04:46:44.006Z,6.67
2022-12-08T04:49:12.325Z,8.40
2022-12-08T04:51:44.114Z,7.37
2022-12-08T04:54:12.315Z,7.40
2022-12-08T04:56:41.311Z,7.43
2022-12-08T04:59:09.581Z,6.90
2022-12-08T05:01:39.262Z,6.80
2022-12-08T05:04:09.022Z,6.47
2022-12-08T05:06:37.416Z,6.90
2022-12-08T05:09:06.385Z,6.23
2022-12-08T05:11:35.537Z,6.80
2022-12-08T05:14:06.063Z,6.07
2022-12-08T05:16:36.125Z,6.07
2022-12-08T05:19:04.816Z,5.50
2022-12-08T05:21:34.841Z,5.63
2022-12-08T05:24:03.181Z,5.87
2022-12-08T05:26:31.734Z,5.20
2022-12-08T05:29:00.049Z,5.17
2022-12-08T05:31:28.764Z,5.33
2022-12-08T05:34:02.521Z,6.07
2022-12-08T05:36:31.760Z,6.03
2022-12-08T05:39:01.485Z,6.13
2022-12-08T05:41:31.362Z,5.70
2022-12-08T05:43:59.984Z,4.93
2022-12-08T05:46:29.075Z,5.90
2022-12-08T05:49:00.084Z,5.90
2022-12-08T05:51:29.838Z,5.60
2022-12-08T05:53:59.573Z,6.37
2022-12-08T05:56:30.987Z,5.60
2022-12-08T05:58:59.374Z,5.90
2022-12-08T06:01:30.192Z,5.20
2022-12-08T06:04:01.748Z,5.03
2022-12-08T06:06:31.441Z,5.60
2022-12-08T06:09:00.400Z,5.63
2022-12-08T06:11:32.388Z,5.80
2022-12-08T06:14:03.615Z,5.60
2022-12-08T06:16:32.412Z,5.73
2022-12-08T06:19:00.785Z,5.43
2022-12-08T06:21:30.851Z,5.23
2022-12-08T06:23:59.837Z,5.17
2022-12-08T06:26:31.246Z,6.03
2022-12-08T06:29:07.263Z,5.57
2022-12-08T06:31:35.902Z,5.87
2022-12-08T06:34:06.432Z,6.27
2022-12-08T06:36:35.542Z,6.53
2022-12-08T06:39:04.569Z,6.40
2022-12-08T06:41:56.236Z,7.07
2022-12-08T06:44:24.813Z,6.47
2022-12-08T06:46:53.384Z,6.63
2022-12-08T06:49:21.896Z,6.57
2022-12-08T06:51:50.613Z,6.70
2022-12-08T06:54:19.107Z,6.77
2022-12-08T06:56:48.736Z,6.40
2022-12-08T06:59:19.575Z,5.63
2022-12-08T07:01:51.129Z,6.50
2022-12-08T07:04:19.734Z,5.93
2022-12-08T07:06:47.996Z,6.07
2022-12-08T07:09:16.657Z,5.80
2022-12-08T07:11:45.268Z,6.10
2022-12-08T07:14:15.376Z,6.33
2022-12-08T07:16:44.366Z,6.97
2022-12-08T07:19:14.736Z,6.63
2022-12-08T07:21:43.184Z,6.93
2022-12-08T07:24:11.952Z,7.37
2022-12-08T07:26:41.826Z,7.17
2022-12-08T07:29:20.498Z,8.40
2022-12-08T07:31:54.949Z,8.33
2022-12-08T07:34:23.299Z,8.33
2022-12-08T07:36:52.194Z,8.83
2022-12-08T07:39:26.222Z,10.50
2022-12-08T07:41:54.704Z,10.83
2022-12-08T07:44:24.499Z,11.57
2022-12-08T07:46:52.888Z,11.00
2022-12-08T07:49:21.529Z,10.40
2022-12-08T07:51:49.822Z,10.90
2022-12-08T07:54:18.203Z,10.87
2022-12-08T07:56:46.522Z,10.93
2022-12-08T07:59:15.267Z,11.90
2022-12-08T08:01:56.306Z,10.87
2022-12-08T08:04:35.993Z,10.97
2022-12-08T08:07:04.606Z,11.00
2022-12-08T08:09:36.163Z,11.07
2022-12-08T08:12:30.264Z,11.87
2022-12-08T08:14:55.410Z,10.80
2022-12-08T08:17:25.227Z,11.87
2022-12-08T08:19:56.014Z,11.60
2022-12-08T08:22:25.848Z,11.07
2022-12-08T08:24:57.104Z,11.37
2022-12-08T08:27:26.870Z,16.37
2022-12-08T08:29:55.319Z,15.20
2022-12-08T08:32:25.062Z,15.43
2022-12-08T08:34:53.820Z,16.57
2022-12-08T08:37:22.185Z,15.50
2022-12-08T08:39:51.766Z,14.87
2022-12-08T08:42:20.263Z,12.70
2022-12-08T08:44:49.023Z,12.33
2022-12-08T08:47:17.901Z,11.67
2022-12-08T08:49:47.714Z,12.10
2022-12-08T08:52:16.532Z,10.73
2022-12-08T08:54:45.223Z,11.30
2022-12-08T08:57:13.572Z,10.37
2022-12-08T08:59:42.179Z,10.80
2022-12-08T09:02:18.147Z,10.17
2022-12-08T09:04:48.237Z,10.87
2022-12-08T09:07:18.208Z,10.37
2022-12-08T09:09:46.730Z,10.77
2022-12-08T09:12:15.110Z,10.93
2022-12-08T09:14:45.558Z,10.87
2022-12-08T09:17:14.118Z,10.97
2022-12-08T09:19:42.690Z,10.90
2022-12-08T09:22:12.469Z,10.83
2022-12-08T09:24:43.595Z,11.07
2022-12-08T09:27:12.457Z,9.20
2022-12-08T09:29:41.024Z,9.73
2022-12-08T09:32:09.455Z,10.50
2022-12-08T09:34:38.201Z,10.13
2022-12-08T09:37:06.551Z,10.70
2022-12-08T09:39:36.989Z,9.80
2022-12-08T09:42:07.787Z,10.37
2022-12-08T09:44:55.021Z,10.50
2022-12-08T09:47:29.475Z,11.27
2022-12-08T09:50:08.576Z,11.40
2022-12-08T09:52:44.330Z,12.90
2022-12-08T09:55:23.381Z,18.83
2022-12-08T09:58:01.229Z,22.47
2022-12-08T10:00:30.150Z,12.07
2022-12-08T10:03:03.056Z,11.63
2022-12-08T10:05:38.317Z,11.67
2022-12-08T10:08:17.808Z,11.17
2022-12-08T10:10:49.623Z,11.73
2022-12-08T10:13:25.607Z,11.23
2022-12-08T10:16:03.307Z,12.00
2022-12-08T10:18:35.061Z,11.53
2022-12-08T10:21:14.849Z,10.13
2022-12-08T10:23:47.148Z,10.77
2022-12-08T10:26:19.545Z,10.77
2022-12-08T10:28:51.290Z,11.10
2022-12-08T10:31:21.754Z,9.07
2022-12-08T10:33:57.923Z,9.33
2022-12-08T10:36:46.302Z,8.50
2022-12-08T10:39:33.866Z,9.33
2022-12-08T10:42:09.233Z,9.80
2022-12-08T10:44:51.355Z,10.03
2022-12-08T10:47:22.827Z,9.60
2022-12-08T10:50:20.241Z,10.67
2022-12-08T10:52:57.235Z,9.27
2022-12-08T10:55:26.426Z,12.77
2022-12-08T10:57:56.528Z,11.23
2022-12-08T11:00:28.742Z,10.60
2022-12-08T11:03:00.393Z,10.20
2022-12-08T11:05:32.749Z,10.90
2022-12-08T11:08:02.861Z,10.43
2022-12-08T11:10:37.108Z,10.73
2022-12-08T11:13:12.651Z,10.50
2022-12-08T11:15:41.594Z,9.50
2022-12-08T11:18:22.978Z,9.50
2022-12-08T11:20:59.931Z,10.37
2022-12-08T11:23:31.066Z,10.57
2022-12-08T11:26:06.033Z,8.77
2022-12-08T11:28:36.255Z,9.17
2022-12-08T11:31:13.279Z,8.47
2022-12-08T11:33:44.071Z,9.47
2022-12-08T11:36:16.559Z,8.87
2022-12-08T11:38:48.384Z,7.73
2022-12-08T11:41:20.130Z,8.50
2022-12-08T11:43:56.548Z,9.70
2022-12-08T11:46:28.469Z,7.70
2022-12-08T11:49:06.197Z,7.63
2022-12-08T11:51:39.034Z,8.00
2022-12-08T11:54:16.952Z,8.77
2022-12-08T11:56:48.736Z,8.50
2022-12-08T11:59:25.082Z,8.57
2022-12-08T12:01:53.752Z,8.43
2022-12-08T12:04:29.342Z,8.37
2022-12-08T12:07:37.776Z,9.07
2022-12-08T12:10:39.068Z,7.73
2022-12-08T12:13:19.655Z,8.17
2022-12-08T12:16:21.492Z,11.23
2022-12-08T12:18:52.936Z,11.70
2022-12-08T12:21:27.325Z,12.30
2022-12-08T12:23:58.318Z,10.37
2022-12-08T12:26:29.594Z,11.07
2022-12-08T12:29:03.016Z,10.90
2022-12-08T12:31:36.643Z,10.27
2022-12-08T12:34:09.644Z,9.17
2022-12-08T12:36:58.185Z,11.20
2022-12-08T12:39:30.629Z,11.00
2022-12-08T12:42:02.024Z,10.93
2022-12-08T12:44:43.435Z,10.17
2022-12-08T12:47:16.510Z,12.50
2022-12-08T12:50:08.262Z,13.60
2022-12-08T12:52:49.999Z,11.90
2022-12-08T12:55:24.224Z,10.83
2022-12-08T12:57:55.108Z,9.10
2022-12-08T13:00:25.936Z,9.30
2022-12-08T13:02:58.654Z,11.77
2022-12-08T13:05:28.839Z,9.83
2022-12-08T13:08:00.498Z,10.53
2022-12-08T13:10:32.759Z,9.87
2022-12-08T13:13:22.094Z,9.90
2022-12-08T13:15:52.811Z,9.30
2022-12-08T13:18:26.962Z,9.00
2022-12-08T13:21:03.626Z,10.53
2022-12-08T13:23:47.095Z,9.37
2022-12-08T13:26:21.745Z,9.10
2022-12-08T13:29:18.230Z,9.10
2022-12-08T13:31:51.865Z,8.53
2022-12-08T13:34:29.592Z,8.60
2022-12-08T13:37:08.484Z,7.43
2022-12-08T13:39:50.223Z,6.60
2022-12-08T13:42:25.066Z,6.43
2022-12-08T13:48:21.552Z,5.80
2022-12-08T13:57:02.577Z,6.53
2022-12-08T13:59:29.284Z,11.47
2022-12-08T14:02:00.203Z,8.10
2022-12-08T14:05:16.388Z,6.77
2022-12-08T14:07:20.207Z,6.10
2022-12-08T14:09:48.862Z,6.43
2022-12-08T14:12:21.626Z,6.57
2022-12-08T14:15:08.354Z,6.90
2022-12-08T14:17:37.264Z,8.63
2022-12-08T14:20:26.776Z,9.43
2022-12-08T14:22:58.931Z,8.00
2022-12-08T14:25:29.324Z,7.23
2022-12-08T14:28:01.117Z,7.83
2022-12-08T14:30:36.268Z,7.00
2022-12-08T14:33:05.926Z,6.27
2022-12-08T14:35:35.541Z,6.43
2022-12-08T14:38:06.893Z,6.80
2022-12-08T14:40:37.179Z,6.90
2022-12-08T14:43:16.501Z,6.53
2022-12-08T14:45:50.796Z,6.10
2022-12-08T14:48:20.845Z,5.00
2022-12-08T14:51:02.009Z,5.27
2022-12-08T14:53:39.699Z,5.63
2022-12-08T14:56:15.818Z,5.60
2022-12-08T14:58:45.093Z,5.60
2022-12-08T15:01:17.216Z,5.87
2022-12-08T15:03:50.920Z,5.50
2022-12-08T15:06:24.992Z,5.80
2022-12-08T15:09:00.019Z,6.30
2022-12-08T15:11:37.911Z,7.43
2022-12-08T15:14:30.575Z,6.30
2022-12-08T15:16:59.502Z,5.23
2022-12-08T15:19:31.370Z,5.53
2022-12-08T15:22:09.599Z,5.27
2022-12-08T15:24:40.868Z,5.23
2022-12-08T15:27:17.451Z,5.47
2022-12-08T15:29:48.413Z,5.40
2022-12-08T15:32:20.004Z,5.13
2022-12-08T15:34:48.414Z,6.03
2022-12-08T15:37:22.992Z,5.60
2022-12-08T15:39:53.793Z,5.23
2022-12-08T15:42:22.507Z,6.30
2022-12-08T15:44:50.914Z,5.63
2022-12-08T15:47:21.478Z,5.77
2022-12-08T15:49:52.848Z,5.27
2022-12-08T15:52:23.672Z,6.10
2022-12-08T15:54:54.961Z,4.93
2022-12-08T15:58:04.049Z,5.73
2022-12-08T16:00:51.691Z,5.27
2022-12-08T16:04:08.989Z,5.90
2022-12-08T16:09:13.388Z,5.10
2022-12-08T16:12:10.156Z,5.60
2022-12-08T16:17:28.844Z,5.20
2022-12-08T16:19:57.632Z,5.50
2022-12-08T16:22:56.392Z,5.97
2022-12-08T16:25:19.755Z,6.40
2022-12-08T16:28:12.590Z,5.97
2022-12-08T16:30:42.886Z,6.00
2022-12-08T16:33:12.451Z,6.40
2022-12-08T16:35:42.015Z,6.70
2022-12-08T16:38:13.545Z,6.57
2022-12-08T16:40:58.483Z,6.27
2022-12-08T16:43:28.902Z,6.37
2022-12-08T16:45:57.395Z,6.47
2022-12-08T16:48:26.028Z,6.27
2022-12-08T16:50:55.457Z,6.07
2022-12-08T16:53:24.815Z,6.67
2022-12-08T16:55:53.485Z,7.20
2022-12-08T16:58:22.560Z,7.17
2022-12-08T17:00:55.404Z,7.07
2022-12-08T17:03:41.156Z,7.17
2022-12-08T17:06:13.344Z,7.23
2022-12-08T17:08:42.546Z,7.07
2022-12-08T17:11:13.057Z,7.97
2022-12-08T17:13:43.009Z,7.50
2022-12-08T17:16:16.658Z,7.90
2022-12-08T17:18:45.134Z,8.13
2022-12-08T17:21:14.859Z,9.50
2022-12-08T17:23:44.061Z,8.67
2022-12-08T17:26:13.683Z,8.00
2022-12-08T17:29:00.062Z,8.60
2022-12-08T17:31:33.767Z,8.73
2022-12-08T17:34:03.884Z,8.30
2022-12-08T17:36:33.320Z,8.57
2022-12-08T17:39:03.422Z,9.90
2022-12-08T17:41:32.107Z,9.17
2022-12-08T17:44:00.722Z,9.93
2022-12-08T17:46:30.660Z,8.90
2022-12-08T17:49:13.170Z,8.90
2022-12-08T17:51:44.156Z,8.57
2022-12-08T17:54:13.051Z,7.77
2022-12-08T17:56:41.537Z,8.40
2022-12-08T17:59:10.675Z,8.70
2022-12-08T18:01:41.018Z,8.47
2022-12-08T18:04:10.685Z,8.73
2022-12-08T18:06:41.891Z,8.13
2022-12-08T18:09:10.586Z,8.03
2022-12-08T18:11:39.061Z,8.30
2022-12-08T18:14:10.443Z,7.97
2022-12-08T18:16:42.605Z,7.97
2022-12-08T18:19:12.129Z,7.30
2022-12-08T18:21:41.063Z,7.67
2022-12-08T18:24:10.223Z,7.87
2022-12-08T18:26:38.656Z,7.27
2022-12-08T18:29:07.142Z,7.47
2022-12-08T18:31:35.737Z,7.47
2022-12-08T18:34:06.051Z,7.60
2022-12-08T18:36:34.655Z,7.90
2022-12-08T18:39:08.801Z,7.77
2022-12-08T18:41:39.454Z,8.00
2022-12-08T18:44:09.152Z,7.87
2022-12-08T18:46:37.492Z,8.03
2022-12-08T18:49:20.149Z,8.53
2022-12-08T18:51:48.710Z,7.53
2022-12-08T18:54:17.756Z,8.23
2022-12-08T18:56:46.797Z,7.93
2022-12-08T18:59:15.410Z,7.30
2022-12-08T19:01:44.147Z,8.20
2022-12-08T19:04:29.888Z,8.60
2022-12-08T19:06:59.567Z,8.33
2022-12-08T19:09:28.996Z,8.67
2022-12-08T19:11:58.135Z,7.70
2022-12-08T19:14:28.682Z,8.37
2022-12-08T19:16:57.893Z,8.53
2022-12-08T19:19:29.088Z,8.87
2022-12-08T19:21:58.029Z,9.30
2022-12-08T19:24:28.300Z,9.50
2022-12-08T19:26:57.087Z,9.20
2022-12-08T19:29:25.690Z,9.30
2022-12-08T19:31:54.392Z,9.20
2022-12-08T19:34:26.747Z,7.90
2022-12-08T19:36:57.424Z,9.77
2022-12-08T19:39:43.896Z,9.17
2022-12-08T19:42:35.081Z,9.27
2022-12-08T19:45:08.628Z,8.93
2022-12-08T19:47:38.329Z,8.30
2022-12-08T19:50:26.825Z,8.87
2022-12-08T19:52:57.449Z,8.97
2022-12-08T19:55:26.900Z,8.67
2022-12-08T19:57:56.733Z,8.97
2022-12-08T20:00:25.501Z,8.63
2022-12-08T20:02:54.882Z,9.03
2022-12-08T20:05:24.124Z,9.40
2022-12-08T20:07:55.690Z,9.47
2022-12-08T20:10:28.316Z,9.13
2022-12-08T20:13:17.146Z,9.03
2022-12-08T20:15:46.597Z,9.50
2022-12-08T20:18:18.909Z,9.40
2022-12-08T20:20:48.136Z,9.20
2022-12-08T20:23:17.939Z,9.17
2022-12-08T20:25:48.645Z,8.53
2022-12-08T20:28:19.836Z,9.43
2022-12-08T20:30:49.399Z,9.47
2022-12-08T20:33:20.793Z,9.53
2022-12-08T20:35:59.811Z,9.53
2022-12-08T20:38:28.902Z,8.57
2022-12-08T20:40:59.372Z,9.43
2022-12-08T20:43:28.120Z,9.63
2022-12-08T20:45:56.551Z,9.53
2022-12-08T20:48:25.149Z,8.97
2022-12-08T20:50:55.052Z,8.53
2022-12-08T20:53:23.715Z,9.80
2022-12-08T20:55:54.302Z,8.83
2022-12-08T20:58:24.654Z,9.10
2022-12-08T21:00:53.539Z,9.23
2022-12-08T21:03:22.934Z,8.60
2022-12-08T21:05:52.850Z,9.37
2022-12-08T21:08:24.891Z,9.67
2022-12-08T21:10:55.741Z,9.33
2022-12-08T21:13:25.593Z,9.00
2022-12-08T21:15:54.561Z,9.03
2022-12-08T21:18:23.303Z,9.67
2022-12-08T21:20:53.193Z,9.70
2022-12-08T21:23:23.273Z,9.13
2022-12-08T21:25:52.333Z,8.90
2022-12-08T21:28:20.892Z,9.70
2022-12-08T21:30:50.759Z,9.77
2022-12-08T21:33:19.296Z,8.77
2022-12-08T21:35:48.262Z,9.07
2022-12-08T21:38:17.523Z,9.60
2022-12-08T21:40:46.049Z,8.93
2022-12-08T21:43:14.624Z,9.93
2022-12-08T21:45:43.336Z,8.80
2022-12-08T21:48:13.389Z,8.67
2022-12-08T21:50:42.751Z,7.47
2022-12-08T21:53:12.509Z,7.20
2022-12-08T21:55:42.254Z,7.07
2022-12-08T21:58:11.283Z,6.30
2022-12-08T22:00:41.401Z,5.20
2022-12-08T22:03:15.570Z,4.90
2022-12-08T22:05:44.374Z,5.00
2022-12-08T22:08:12.854Z,6.07
2022-12-08T22:10:41.969Z,5.17
2022-12-08T22:13:10.311Z,5.60
2022-12-08T22:15:38.981Z,5.43
2022-12-08T22:18:08.553Z,5.47
2022-12-08T22:20:44.172Z,5.00
2022-12-08T22:23:14.864Z,5.27
2022-12-08T22:25:44.138Z,5.30
2022-12-08T22:28:13.341Z,5.40
2022-12-08T22:30:42.373Z,5.10
2022-12-08T22:33:10.909Z,5.17
2022-12-08T22:35:41.378Z,5.10
2022-12-08T22:38:10.039Z,5.17
2022-12-08T22:40:41.560Z,5.83
2022-12-08T22:43:11.374Z,6.20
2022-12-08T22:45:40.240Z,5.77
2022-12-08T22:48:09.052Z,5.70
2022-12-08T22:50:38.755Z,5.73
2022-12-08T22:53:09.333Z,5.50
2022-12-08T22:55:42.468Z,5.60
2022-12-08T22:58:11.408Z,5.30
2022-12-08T23:00:40.191Z,5.53
2022-12-08T23:03:08.900Z,5.27
2022-12-08T23:05:39.254Z,5.70
2022-12-08T23:08:10.244Z,5.30
2022-12-08T23:10:41.477Z,5.23
2022-12-08T23:13:13.717Z,5.60
2022-12-08T23:15:42.362Z,5.73
2022-12-08T23:18:15.824Z,5.33
2022-12-08T23:20:45.167Z,6.03
2022-12-08T23:23:15.807Z,5.60
2022-12-08T23:25:44.851Z,5.73
2022-12-08T23:28:13.500Z,5.97
2022-12-08T23:30:42.317Z,6.13
2022-12-08T23:37:10.879Z,6.03
2022-12-08T23:39:53.227Z,5.70
2022-12-08T23:42:22.123Z,5.77
2022-12-08T23:44:50.777Z,6.17
2022-12-08T23:47:19.617Z,6.53
2022-12-08T23:49:48.723Z,5.97
2022-12-08T23:52:17.728Z,5.53
2022-12-08T23:54:52.723Z,6.70
2022-12-08T23:57:22.145Z,5.87
2022-12-08T23:59:51.121Z,6.13
